Hauptseite
METAR-TAF:

METAR-TAF

Flughäfen :

Militärflugplatz Woensdrecht

Woensdrecht, Niederlande

Breite: 51-27N, Länge: 004-20E, Höhe: 20 m

Beobachtung

Neuester Wetterbericht von vor 21 Minuten, um 04:32 UTC
Wind 2 kt aus Ost/Nordost
Temperatur -1°C
Luftfeuchtigkeit 100%
Luftdruck 1010 hPa
Sichtweite: 3000 m
feuchter Dunst

METAR: EHWO 170432Z AUTO 07002KT 3000 BR NCD M01/M01 Q1010 YLO

Zeit: 05:53 (04:53 UTC)


TAF: fehlend

Wetterbeobachtungen und Prognosen von mehr als 4000 Flughäfen (METAR und TAF Bericht).

Die verfügbaren Stationen werden durch gelbe und rote Markierungen auf der Karte dargestellt.

Führen Sie die Maus auf sie, um den Namen der Station zu sehen.

Darauf klicken, um die Beobachtung von Wetterbeobachtungen und Prognosen zu sehen.

Um die Karte zu ändern : klicken Sie auf den grünen Tasten mit einem schwarzen Kreuz Zum Vergrößern, auf den grünen Button mit einem Gedankenstrich zu verkleinern, oder auf die grünen Pfeile für benachbarte Karten.


METAR-TAF: